Daikoku — JD3247 — position and weather

sailwx.info

Track history (hours):
 
Tides and Currents Weather Stations Pressure Air Temp Water Temp Dewpoint Dewpoint Depression Visibility Wind Speed Wind Dir Waves Ship Positions

Daikoku

Last reported at 2017-Oct-19 08:38 UTC. Time now 2017-Oct-22 23:07 UTC.
Position N 34°38' E 134°59'.

Length 95 m; draft 3 m.

Type: Cargo ship. MMSI: 431003009.

Date/timePositionNaut miles runAvg speedWind from/ knotsBaromVisibWave heightAir tempDewpointWater temp
2017-Oct-19 08:38N 34°38' E 134°59'213.3
2017-Oct-19 08:30N 34°37' E 135°01'713.1
2017-Oct-19 08:00N 34°36' E 135°09'612.7
2017-Oct-19 07:30N 34°38' E 135°17'3 6.6
2017-Oct-19 07:00N 34°41' E 135°17'1 2.1
2017-Oct-19 06:30N 34°40' E 135°15'1 2.9
2017-Oct-19 06:00N 34°39' E 135°15'1 1.3
2017-Oct-19 05:30N 34°39' E 135°15'3 5.9
2017-Oct-19 05:00N 34°39' E 135°19'0 0.0
2017-Oct-19 04:30N 34°39' E 135°19'0 0.0
2017-Oct-19 04:00N 34°39' E 135°19'0 0.0
2017-Oct-19 03:30N 34°39' E 135°19'0 0.8
2017-Oct-19 03:00N 34°40' E 135°19'2 4.4
2017-Oct-19 02:30N 34°41' E 135°17'0 0.0
2017-Oct-19 02:00N 34°41' E 135°17'0 0.8
2017-Oct-19 01:30N 34°41' E 135°16'2 4.1
2017-Oct-19 01:00N 34°39' E 135°15'1 1.2
2017-Oct-19 00:30N 34°39' E 135°15'2 4.8
2017-Oct-19 00:00N 34°37' E 135°17'2 4.2
2017-Oct-18 23:30N 34°39' E 135°16'3 6.7
2017-Oct-18 23:00N 34°41' E 135°13'0 0.3
2017-Oct-18 22:30N 34°41' E 135°12'0 0.0
2017-Oct-18 22:00N 34°41' E 135°12'0 0.0
2017-Oct-18 21:30N 34°41' E 135°12'0 0.0
2017-Oct-18 21:00N 34°41' E 135°12'0 0.0
2017-Oct-18 20:30N 34°41' E 135°12'0 0.0
2017-Oct-18 20:00N 34°41' E 135°12'0 0.0
2017-Oct-18 19:30N 34°41' E 135°12'0 0.0
2017-Oct-18 19:00N 34°41' E 135°12'0 0.0
2017-Oct-18 18:30N 34°41' E 135°12'0 0.0
2017-Oct-18 18:00N 34°41' E 135°12'0 0.0
2017-Oct-18 17:30N 34°41' E 135°12'0 0.0
2017-Oct-18 17:00N 34°41' E 135°12'0 0.0
2017-Oct-18 16:30N 34°41' E 135°12'0 0.0
2017-Oct-18 16:00N 34°41' E 135°12'0 0.0
2017-Oct-18 15:30N 34°41' E 135°12'0 0.0
2017-Oct-18 15:00N 34°41' E 135°12'0 0.0
2017-Oct-18 14:00N 34°41' E 135°12'0 0.0
2017-Oct-18 13:30N 34°41' E 135°12'0 0.0
2017-Oct-18 13:00N 34°41' E 135°12'0 0.0
2017-Oct-18 12:30N 34°41' E 135°12'0 0.0
2017-Oct-18 12:00N 34°41' E 135°12'0 0.0
2017-Oct-18 11:30N 34°41' E 135°12'0 0.0
2017-Oct-18 11:00N 34°41' E 135°12'0 0.0
2017-Oct-18 10:30N 34°41' E 135°12'0 0.0
2017-Oct-18 10:00N 34°41' E 135°12'0 0.0
2017-Oct-18 09:30N 34°41' E 135°12'0 0.0
2017-Oct-18 09:00N 34°41' E 135°12'0 0.0
2017-Oct-18 08:30N 34°41' E 135°12'0 0.0
2017-Oct-18 08:00N 34°41' E 135°12'0 0.0
2017-Oct-18 07:30N 34°41' E 135°12'0 0.0
2017-Oct-18 07:00N 34°41' E 135°12'0 0.0
2017-Oct-18 06:30N 34°41' E 135°12'0 0.0
2017-Oct-18 06:00N 34°41' E 135°12'0 0.0
2017-Oct-18 05:30N 34°41' E 135°12'2 4.3
2017-Oct-18 05:00N 34°40' E 135°15'1 1.6
2017-Oct-18 04:30N 34°40' E 135°14'1 1.9
2017-Oct-18 04:00N 34°39' E 135°15'3 5.7
2017-Oct-18 03:29N 34°39' E 135°19'0 0.0
2017-Oct-18 02:55N 34°39' E 135°19'0 0.0
2017-Oct-18 02:30N 34°39' E 135°19'0 0.0
2017-Oct-18 02:00N 34°39' E 135°19'0 0.0
2017-Oct-18 01:29N 34°39' E 135°19'0 0.0
2017-Oct-18 01:00N 34°39' E 135°19'2 3.1
2017-Oct-18 00:30N 34°40' E 135°18'1 2.4
2017-Oct-18 00:00N 34°41' E 135°17'1 2.2
2017-Oct-17 23:30N 34°41' E 135°18'2 4.3
2017-Oct-17 23:00N 34°39' E 135°19'0 0.0
2017-Oct-17 22:27N 34°39' E 135°19'0 0.0
2017-Oct-17 21:59N 34°39' E 135°19'0 0.0
2017-Oct-17 21:30N 34°39' E 135°19'0 0.0
2017-Oct-17 21:00N 34°39' E 135°19'0 0.0
2017-Oct-17 20:30N 34°39' E 135°19'0 0.1
2017-Oct-17 20:00N 34°39' E 135°19'0 0.0
2017-Oct-17 19:28N 34°39' E 135°19'0 0.0
2017-Oct-17 18:58N 34°39' E 135°19'0 0.0
2017-Oct-17 18:30N 34°39' E 135°19'0 0.1
2017-Oct-17 18:00N 34°39' E 135°19'0 0.1
2017-Oct-17 17:30N 34°39' E 135°19'0 0.0
2017-Oct-17 17:00N 34°39' E 135°19'0 0.0
2017-Oct-17 16:30N 34°39' E 135°19'0 0.0
2017-Oct-17 16:00N 34°39' E 135°19'0 0.0
2017-Oct-17 15:30N 34°39' E 135°19'0 0.0
2017-Oct-17 15:00N 34°39' E 135°19'0 0.0
2017-Oct-17 14:30N 34°39' E 135°19'0 0.1
2017-Oct-17 14:00N 34°39' E 135°19'0 0.0
2017-Oct-17 13:30N 34°39' E 135°19'0 0.0
2017-Oct-17 13:00N 34°39' E 135°19'0 0.0
2017-Oct-17 12:30N 34°39' E 135°19'0 0.0
2017-Oct-17 12:00N 34°39' E 135°19'0 0.0
2017-Oct-17 11:30N 34°39' E 135°19'0 0.0
2017-Oct-17 11:00N 34°39' E 135°19'0 0.0
2017-Oct-17 10:30N 34°39' E 135°19'0 0.0
2017-Oct-17 10:00N 34°39' E 135°19'0 0.1
2017-Oct-17 09:30N 34°39' E 135°19'0 0.0
2017-Oct-17 09:00N 34°39' E 135°19'0 0.1
2017-Oct-17 08:30N 34°39' E 135°19'0 0.0
2017-Oct-17 08:00N 34°39' E 135°19'0 0.1
2017-Oct-17 07:30N 34°39' E 135°19'0 0.0
2017-Oct-17 07:00N 34°39' E 135°19'0 1.0
2017-Oct-17 06:30N 34°38' E 135°19'713.8
2017-Oct-17 06:00N 34°35' E 135°11'915.0
2017-Oct-17 05:25N 34°37' E 135°01'3 0.2
2017-Oct-16 12:22N 34°37' E 134°57'512.9
2017-Oct-16 12:00N 34°37' E 135°02'713.4
2017-Oct-16 11:30N 34°36' E 135°10'510.1
2017-Oct-16 11:00N 34°39' E 135°15'1 1.4
2017-Oct-16 10:30N 34°39' E 135°15'0 0.0
2017-Oct-16 10:00N 34°39' E 135°15'0 0.1
2017-Oct-16 09:30N 34°39' E 135°15'0 0.0
2017-Oct-16 09:00N 34°39' E 135°15'0 0.0
2017-Oct-16 08:30N 34°39' E 135°15'0 0.1
2017-Oct-16 08:00N 34°39' E 135°15'0 0.0
2017-Oct-16 07:29N 34°39' E 135°15'0 0.0
2017-Oct-16 07:00N 34°39' E 135°15'0 0.0
2017-Oct-16 06:30N 34°39' E 135°15'2 4.7
2017-Oct-16 06:00N 34°41' E 135°17'0 0.0
2017-Oct-16 05:30N 34°41' E 135°17'0 0.0
2017-Oct-16 05:00N 34°41' E 135°17'0 0.0
2017-Oct-16 04:30N 34°41' E 135°17'0 0.0
2017-Oct-16 04:00N 34°41' E 135°17'3 5.3
2017-Oct-16 03:30N 34°39' E 135°19'0 0.1
2017-Oct-16 02:59N 34°39' E 135°19'0 0.0
2017-Oct-16 02:30N 34°39' E 135°19'0 0.0
2017-Oct-16 02:00N 34°39' E 135°19'0 0.0
2017-Oct-16 01:30N 34°39' E 135°19'0 0.0
2017-Oct-16 01:00N 34°39' E 135°19'3 5.4
2017-Oct-16 00:30N 34°39' E 135°16'1 2.0
2017-Oct-16 00:00N 34°39' E 135°15'0 0.1
2017-Oct-15 23:30N 34°39' E 135°15'4 7.6
2017-Oct-15 23:00N 34°38' E 135°19'0 0.2
2017-Oct-15 22:30N 34°39' E 135°19'0 0.0
2017-Oct-15 22:00N 34°39' E 135°19'0 0.0
2017-Oct-15 21:28N 34°39' E 135°19'0 0.0
2017-Oct-15 20:59N 34°39' E 135°19'0 0.0
2017-Oct-15 20:25N 34°39' E 135°19'0 0.0
2017-Oct-15 20:00N 34°39' E 135°19'0 0.0
2017-Oct-15 19:30N 34°39' E 135°19'0 0.1
2017-Oct-15 19:00N 34°39' E 135°19'0 0.0
2017-Oct-15 18:30N 34°39' E 135°19'0 0.0
2017-Oct-15 18:00N 34°39' E 135°19'0 0.0
2017-Oct-15 17:30N 34°39' E 135°19'0 0.0
2017-Oct-15 17:00N 34°39' E 135°19'0 0.0
2017-Oct-15 16:30N 34°39' E 135°19'0 0.0
2017-Oct-15 16:00N 34°39' E 135°19'0 0.0
2017-Oct-15 15:30N 34°39' E 135°19'0 0.0
2017-Oct-15 15:00N 34°39' E 135°19'0 0.0
2017-Oct-15 14:00N 34°39' E 135°19'0 0.0
2017-Oct-15 13:30N 34°39' E 135°19'0 0.0
2017-Oct-15 13:00N 34°39' E 135°19'0 0.1
2017-Oct-15 12:30N 34°39' E 135°19'0 0.0
2017-Oct-15 12:00N 34°39' E 135°19'0 0.0
2017-Oct-15 11:30N 34°39' E 135°19'2 4.2
2017-Oct-15 11:00N 34°37' E 135°17'612.3
2017-Oct-15 10:30N 34°35' E 135°10'612.1
2017-Oct-15 10:00N 34°36' E 135°03'610.8
2017-Oct-15 09:28N 34°36' E 134°56'  
2017-Oct-12 09:04N 34°37' E 135°00'111.4
2017-Oct-12 09:00N 34°37' E 135°01'611.7
2017-Oct-12 08:30N 34°36' E 135°08'713.1
2017-Oct-12 08:00N 34°37' E 135°16'2 3.7
2017-Oct-12 07:30N 34°39' E 135°15'0 0.0
2017-Oct-12 07:00N 34°39' E 135°15'1 1.1
2017-Oct-12 06:30N 34°40' E 135°15'2 3.6
2017-Oct-12 06:00N 34°41' E 135°17'0 0.0
2017-Oct-12 05:30N 34°41' E 135°17'0 0.0
2017-Oct-12 05:00N 34°41' E 135°17'0 0.1
2017-Oct-12 04:30N 34°41' E 135°17'3 5.0
2017-Oct-12 03:59N 34°39' E 135°19'0 0.1
2017-Oct-12 03:30N 34°39' E 135°19'0 0.0
2017-Oct-12 03:00N 34°39' E 135°19'0 0.0
2017-Oct-12 02:30N 34°39' E 135°19'0 0.0
2017-Oct-12 02:00N 34°39' E 135°19'0 0.0
2017-Oct-12 01:30N 34°39' E 135°19'0 0.0
2017-Oct-12 01:00N 34°39' E 135°19'0 0.0
2017-Oct-12 00:29N 34°39' E 135°19'0 0.0
2017-Oct-12 00:00N 34°39' E 135°19'0 0.0
2017-Oct-11 23:30N 34°39' E 135°19'0 0.0
2017-Oct-11 22:59N 34°39' E 135°19'2 3.5
2017-Oct-11 22:30N 34°41' E 135°18'1 2.2
2017-Oct-11 22:00N 34°41' E 135°17'0 0.0
2017-Oct-11 21:30N 34°41' E 135°17'0 0.0
2017-Oct-11 21:00N 34°41' E 135°17'0 0.0
2017-Oct-11 20:30N 34°41' E 135°17'0 0.0
2017-Oct-11 20:00N 34°41' E 135°17'0 0.0
2017-Oct-11 19:30N 34°41' E 135°17'0 0.0
2017-Oct-11 19:00N 34°41' E 135°17'0 0.0
2017-Oct-11 18:30N 34°41' E 135°17'0 0.0
2017-Oct-11 18:00N 34°41' E 135°17'0 0.0
2017-Oct-11 17:30N 34°41' E 135°17'0 0.0
2017-Oct-11 17:00N 34°41' E 135°17'2 0.1
2017-Oct-11 00:00N 34°40' E 135°14'0 0.0
2017-Oct-10 23:30N 34°40' E 135°14'1 2.1
2017-Oct-10 23:00N 34°39' E 135°15'2 3.8
2017-Oct-10 22:30N 34°37' E 135°16'0 0.0
2017-Oct-10 22:00N 34°37' E 135°16'0 0.0
2017-Oct-10 21:30N 34°37' E 135°16'0 0.0
2017-Oct-10 21:00N 34°37' E 135°16'0 0.0
2017-Oct-10 20:30N 34°37' E 135°16'0 0.0
2017-Oct-10 20:00N 34°37' E 135°16'0 0.0
2017-Oct-10 19:30N 34°37' E 135°16'0 0.0
2017-Oct-10 19:00N 34°37' E 135°16'0 0.0
2017-Oct-10 18:30N 34°37' E 135°16'0 0.0
2017-Oct-10 18:00N 34°37' E 135°16'0 0.0
2017-Oct-10 17:30N 34°37' E 135°16'0 0.0
2017-Oct-10 16:59N 34°37' E 135°16'0 0.0
2017-Oct-10 16:30N 34°37' E 135°16'0 0.0
2017-Oct-10 16:00N 34°37' E 135°16'0 0.0
2017-Oct-10 15:30N 34°37' E 135°16'0 0.0
2017-Oct-10 15:00N 34°37' E 135°16'0 0.0
2017-Oct-10 13:57N 34°37' E 135°16'0 0.0
2017-Oct-10 13:30N 34°37' E 135°16'0 0.0
2017-Oct-10 13:00N 34°37' E 135°16'0 0.0
2017-Oct-10 12:30N 34°37' E 135°16'0 0.0
2017-Oct-10 12:00N 34°37' E 135°16'0 0.0
2017-Oct-10 11:30N 34°37' E 135°16'0 0.0
2017-Oct-10 11:00N 34°37' E 135°16'0 0.1
2017-Oct-10 10:30N 34°37' E 135°16'0 0.0
2017-Oct-10 10:00N 34°37' E 135°16'0 0.0
2017-Oct-10 09:30N 34°37' E 135°16'0 0.1
2017-Oct-10 09:00N 34°37' E 135°16'0 0.0
2017-Oct-10 08:30N 34°37' E 135°16'0 0.0
2017-Oct-10 08:00N 34°37' E 135°16'0 0.1
2017-Oct-10 07:30N 34°37' E 135°16'4 7.9
2017-Oct-10 07:00N 34°35' E 135°12'713.2
2017-Oct-10 06:30N 34°35' E 135°04'712.9
2017-Oct-10 05:57N 34°35' E 134°55'  
Track history (hours):
 
Tides and Currents Weather Stations Pressure Air Temp Water Temp Dewpoint Dewpoint Depression Visibility Wind Speed Wind Dir Waves Ship Positions

Daikoku

Last reported at 2017-Oct-19 08:38 UTC. Time now 2017-Oct-22 23:07 UTC.
Position N 34°38' E 134°59'.

Length 95 m; draft 3 m.

Type: Cargo ship. MMSI: 431003009.

Date/timePositionNaut miles runAvg speedWind from/ knotsBaromVisibWave heightAir tempDewpointWater temp
2017-Oct-19 08:38N 34°38' E 134°59'213.3
2017-Oct-19 08:30N 34°37' E 135°01'713.1
2017-Oct-19 08:00N 34°36' E 135°09'612.7
2017-Oct-19 07:30N 34°38' E 135°17'3 6.6
2017-Oct-19 07:00N 34°41' E 135°17'1 2.1
2017-Oct-19 06:30N 34°40' E 135°15'1 2.9
2017-Oct-19 06:00N 34°39' E 135°15'1 1.3
2017-Oct-19 05:30N 34°39' E 135°15'3 5.9
2017-Oct-19 05:00N 34°39' E 135°19'0 0.0
2017-Oct-19 04:30N 34°39' E 135°19'0 0.0
2017-Oct-19 04:00N 34°39' E 135°19'0 0.0
2017-Oct-19 03:30N 34°39' E 135°19'0 0.8
2017-Oct-19 03:00N 34°40' E 135°19'2 4.4
2017-Oct-19 02:30N 34°41' E 135°17'0 0.0
2017-Oct-19 02:00N 34°41' E 135°17'0 0.8
2017-Oct-19 01:30N 34°41' E 135°16'2 4.1
2017-Oct-19 01:00N 34°39' E 135°15'1 1.2
2017-Oct-19 00:30N 34°39' E 135°15'2 4.8
2017-Oct-19 00:00N 34°37' E 135°17'2 4.2
2017-Oct-18 23:30N 34°39' E 135°16'3 6.7
2017-Oct-18 23:00N 34°41' E 135°13'0 0.3
2017-Oct-18 22:30N 34°41' E 135°12'0 0.0
2017-Oct-18 22:00N 34°41' E 135°12'0 0.0
2017-Oct-18 21:30N 34°41' E 135°12'0 0.0
2017-Oct-18 21:00N 34°41' E 135°12'0 0.0
2017-Oct-18 20:30N 34°41' E 135°12'0 0.0
2017-Oct-18 20:00N 34°41' E 135°12'0 0.0
2017-Oct-18 19:30N 34°41' E 135°12'0 0.0
2017-Oct-18 19:00N 34°41' E 135°12'0 0.0
2017-Oct-18 18:30N 34°41' E 135°12'0 0.0
2017-Oct-18 18:00N 34°41' E 135°12'0 0.0
2017-Oct-18 17:30N 34°41' E 135°12'0 0.0
2017-Oct-18 17:00N 34°41' E 135°12'0 0.0
2017-Oct-18 16:30N 34°41' E 135°12'0 0.0
2017-Oct-18 16:00N 34°41' E 135°12'0 0.0
2017-Oct-18 15:30N 34°41' E 135°12'0 0.0
2017-Oct-18 15:00N 34°41' E 135°12'0 0.0
2017-Oct-18 14:00N 34°41' E 135°12'0 0.0
2017-Oct-18 13:30N 34°41' E 135°12'0 0.0
2017-Oct-18 13:00N 34°41' E 135°12'0 0.0
2017-Oct-18 12:30N 34°41' E 135°12'0 0.0
2017-Oct-18 12:00N 34°41' E 135°12'0 0.0
2017-Oct-18 11:30N 34°41' E 135°12'0 0.0
2017-Oct-18 11:00N 34°41' E 135°12'0 0.0
2017-Oct-18 10:30N 34°41' E 135°12'0 0.0
2017-Oct-18 10:00N 34°41' E 135°12'0 0.0
2017-Oct-18 09:30N 34°41' E 135°12'0 0.0
2017-Oct-18 09:00N 34°41' E 135°12'0 0.0
2017-Oct-18 08:30N 34°41' E 135°12'0 0.0
2017-Oct-18 08:00N 34°41' E 135°12'0 0.0
2017-Oct-18 07:30N 34°41' E 135°12'0 0.0
2017-Oct-18 07:00N 34°41' E 135°12'0 0.0
2017-Oct-18 06:30N 34°41' E 135°12'0 0.0
2017-Oct-18 06:00N 34°41' E 135°12'0 0.0
2017-Oct-18 05:30N 34°41' E 135°12'2 4.3
2017-Oct-18 05:00N 34°40' E 135°15'1 1.6
2017-Oct-18 04:30N 34°40' E 135°14'1 1.9
2017-Oct-18 04:00N 34°39' E 135°15'3 5.7
2017-Oct-18 03:29N 34°39' E 135°19'0 0.0
2017-Oct-18 02:55N 34°39' E 135°19'0 0.0
2017-Oct-18 02:30N 34°39' E 135°19'0 0.0
2017-Oct-18 02:00N 34°39' E 135°19'0 0.0
2017-Oct-18 01:29N 34°39' E 135°19'0 0.0
2017-Oct-18 01:00N 34°39' E 135°19'2 3.1
2017-Oct-18 00:30N 34°40' E 135°18'1 2.4
2017-Oct-18 00:00N 34°41' E 135°17'1 2.2
2017-Oct-17 23:30N 34°41' E 135°18'2 4.3
2017-Oct-17 23:00N 34°39' E 135°19'0 0.0
2017-Oct-17 22:27N 34°39' E 135°19'0 0.0
2017-Oct-17 21:59N 34°39' E 135°19'0 0.0
2017-Oct-17 21:30N 34°39' E 135°19'0 0.0
2017-Oct-17 21:00N 34°39' E 135°19'0 0.0
2017-Oct-17 20:30N 34°39' E 135°19'0 0.1
2017-Oct-17 20:00N 34°39' E 135°19'0 0.0
2017-Oct-17 19:28N 34°39' E 135°19'0 0.0
2017-Oct-17 18:58N 34°39' E 135°19'0 0.0
2017-Oct-17 18:30N 34°39' E 135°19'0 0.1
2017-Oct-17 18:00N 34°39' E 135°19'0 0.1
2017-Oct-17 17:30N 34°39' E 135°19'0 0.0
2017-Oct-17 17:00N 34°39' E 135°19'0 0.0
2017-Oct-17 16:30N 34°39' E 135°19'0 0.0
2017-Oct-17 16:00N 34°39' E 135°19'0 0.0
2017-Oct-17 15:30N 34°39' E 135°19'0 0.0
2017-Oct-17 15:00N 34°39' E 135°19'0 0.0
2017-Oct-17 14:30N 34°39' E 135°19'0 0.1
2017-Oct-17 14:00N 34°39' E 135°19'0 0.0
2017-Oct-17 13:30N 34°39' E 135°19'0 0.0
2017-Oct-17 13:00N 34°39' E 135°19'0 0.0
2017-Oct-17 12:30N 34°39' E 135°19'0 0.0
2017-Oct-17 12:00N 34°39' E 135°19'0 0.0
2017-Oct-17 11:30N 34°39' E 135°19'0 0.0
2017-Oct-17 11:00N 34°39' E 135°19'0 0.0
2017-Oct-17 10:30N 34°39' E 135°19'0 0.0
2017-Oct-17 10:00N 34°39' E 135°19'0 0.1
2017-Oct-17 09:30N 34°39' E 135°19'0 0.0
2017-Oct-17 09:00N 34°39' E 135°19'0 0.1
2017-Oct-17 08:30N 34°39' E 135°19'0 0.0
2017-Oct-17 08:00N 34°39' E 135°19'0 0.1
2017-Oct-17 07:30N 34°39' E 135°19'0 0.0
2017-Oct-17 07:00N 34°39' E 135°19'0 1.0
2017-Oct-17 06:30N 34°38' E 135°19'713.8
2017-Oct-17 06:00N 34°35' E 135°11'915.0
2017-Oct-17 05:25N 34°37' E 135°01'3 0.2
2017-Oct-16 12:22N 34°37' E 134°57'512.9
2017-Oct-16 12:00N 34°37' E 135°02'713.4
2017-Oct-16 11:30N 34°36' E 135°10'510.1
2017-Oct-16 11:00N 34°39' E 135°15'1 1.4
2017-Oct-16 10:30N 34°39' E 135°15'0 0.0
2017-Oct-16 10:00N 34°39' E 135°15'0 0.1
2017-Oct-16 09:30N 34°39' E 135°15'0 0.0
2017-Oct-16 09:00N 34°39' E 135°15'0 0.0
2017-Oct-16 08:30N 34°39' E 135°15'0 0.1
2017-Oct-16 08:00N 34°39' E 135°15'0 0.0
2017-Oct-16 07:29N 34°39' E 135°15'0 0.0
2017-Oct-16 07:00N 34°39' E 135°15'0 0.0
2017-Oct-16 06:30N 34°39' E 135°15'2 4.7
2017-Oct-16 06:00N 34°41' E 135°17'0 0.0
2017-Oct-16 05:30N 34°41' E 135°17'0 0.0
2017-Oct-16 05:00N 34°41' E 135°17'0 0.0
2017-Oct-16 04:30N 34°41' E 135°17'0 0.0
2017-Oct-16 04:00N 34°41' E 135°17'3 5.3
2017-Oct-16 03:30N 34°39' E 135°19'0 0.1
2017-Oct-16 02:59N 34°39' E 135°19'0 0.0
2017-Oct-16 02:30N 34°39' E 135°19'0 0.0
2017-Oct-16 02:00N 34°39' E 135°19'0 0.0
2017-Oct-16 01:30N 34°39' E 135°19'0 0.0
2017-Oct-16 01:00N 34°39' E 135°19'3 5.4
2017-Oct-16 00:30N 34°39' E 135°16'1 2.0
2017-Oct-16 00:00N 34°39' E 135°15'0 0.1
2017-Oct-15 23:30N 34°39' E 135°15'4 7.6
2017-Oct-15 23:00N 34°38' E 135°19'0 0.2
2017-Oct-15 22:30N 34°39' E 135°19'0 0.0
2017-Oct-15 22:00N 34°39' E 135°19'0 0.0
2017-Oct-15 21:28N 34°39' E 135°19'0 0.0
2017-Oct-15 20:59N 34°39' E 135°19'0 0.0
2017-Oct-15 20:25N 34°39' E 135°19'0 0.0
2017-Oct-15 20:00N 34°39' E 135°19'0 0.0
2017-Oct-15 19:30N 34°39' E 135°19'0 0.1
2017-Oct-15 19:00N 34°39' E 135°19'0 0.0
2017-Oct-15 18:30N 34°39' E 135°19'0 0.0
2017-Oct-15 18:00N 34°39' E 135°19'0 0.0
2017-Oct-15 17:30N 34°39' E 135°19'0 0.0
2017-Oct-15 17:00N 34°39' E 135°19'0 0.0
2017-Oct-15 16:30N 34°39' E 135°19'0 0.0
2017-Oct-15 16:00N 34°39' E 135°19'0 0.0
2017-Oct-15 15:30N 34°39' E 135°19'0 0.0
2017-Oct-15 15:00N 34°39' E 135°19'0 0.0
2017-Oct-15 14:00N 34°39' E 135°19'0 0.0
2017-Oct-15 13:30N 34°39' E 135°19'0 0.0
2017-Oct-15 13:00N 34°39' E 135°19'0 0.1
2017-Oct-15 12:30N 34°39' E 135°19'0 0.0
2017-Oct-15 12:00N 34°39' E 135°19'0 0.0
2017-Oct-15 11:30N 34°39' E 135°19'2 4.2
2017-Oct-15 11:00N 34°37' E 135°17'612.3
2017-Oct-15 10:30N 34°35' E 135°10'612.1
2017-Oct-15 10:00N 34°36' E 135°03'610.8
2017-Oct-15 09:28N 34°36' E 134°56'  
2017-Oct-12 09:04N 34°37' E 135°00'111.4
2017-Oct-12 09:00N 34°37' E 135°01'611.7
2017-Oct-12 08:30N 34°36' E 135°08'713.1
2017-Oct-12 08:00N 34°37' E 135°16'2 3.7
2017-Oct-12 07:30N 34°39' E 135°15'0 0.0
2017-Oct-12 07:00N 34°39' E 135°15'1 1.1
2017-Oct-12 06:30N 34°40' E 135°15'2 3.6
2017-Oct-12 06:00N 34°41' E 135°17'0 0.0
2017-Oct-12 05:30N 34°41' E 135°17'0 0.0
2017-Oct-12 05:00N 34°41' E 135°17'0 0.1
2017-Oct-12 04:30N 34°41' E 135°17'3 5.0
2017-Oct-12 03:59N 34°39' E 135°19'0 0.1
2017-Oct-12 03:30N 34°39' E 135°19'0 0.0
2017-Oct-12 03:00N 34°39' E 135°19'0 0.0
2017-Oct-12 02:30N 34°39' E 135°19'0 0.0
2017-Oct-12 02:00N 34°39' E 135°19'0 0.0
2017-Oct-12 01:30N 34°39' E 135°19'0 0.0
2017-Oct-12 01:00N 34°39' E 135°19'0 0.0
2017-Oct-12 00:29N 34°39' E 135°19'0 0.0
2017-Oct-12 00:00N 34°39' E 135°19'0 0.0
2017-Oct-11 23:30N 34°39' E 135°19'0 0.0
2017-Oct-11 22:59N 34°39' E 135°19'2 3.5
2017-Oct-11 22:30N 34°41' E 135°18'1 2.2
2017-Oct-11 22:00N 34°41' E 135°17'0 0.0
2017-Oct-11 21:30N 34°41' E 135°17'0 0.0
2017-Oct-11 21:00N 34°41' E 135°17'0 0.0
2017-Oct-11 20:30N 34°41' E 135°17'0 0.0
2017-Oct-11 20:00N 34°41' E 135°17'0 0.0
2017-Oct-11 19:30N 34°41' E 135°17'0 0.0
2017-Oct-11 19:00N 34°41' E 135°17'0 0.0
2017-Oct-11 18:30N 34°41' E 135°17'0 0.0
2017-Oct-11 18:00N 34°41' E 135°17'0 0.0
2017-Oct-11 17:30N 34°41' E 135°17'0 0.0
2017-Oct-11 17:00N 34°41' E 135°17'2 0.1
2017-Oct-11 00:00N 34°40' E 135°14'0 0.0
2017-Oct-10 23:30N 34°40' E 135°14'1 2.1
2017-Oct-10 23:00N 34°39' E 135°15'2 3.8
2017-Oct-10 22:30N 34°37' E 135°16'0 0.0
2017-Oct-10 22:00N 34°37' E 135°16'0 0.0
2017-Oct-10 21:30N 34°37' E 135°16'0 0.0
2017-Oct-10 21:00N 34°37' E 135°16'0 0.0
2017-Oct-10 20:30N 34°37' E 135°16'0 0.0
2017-Oct-10 20:00N 34°37' E 135°16'0 0.0
2017-Oct-10 19:30N 34°37' E 135°16'0 0.0
2017-Oct-10 19:00N 34°37' E 135°16'0 0.0
2017-Oct-10 18:30N 34°37' E 135°16'0 0.0
2017-Oct-10 18:00N 34°37' E 135°16'0 0.0
2017-Oct-10 17:30N 34°37' E 135°16'0 0.0
2017-Oct-10 16:59N 34°37' E 135°16'0 0.0
2017-Oct-10 16:30N 34°37' E 135°16'0 0.0
2017-Oct-10 16:00N 34°37' E 135°16'0 0.0
2017-Oct-10 15:30N 34°37' E 135°16'0 0.0
2017-Oct-10 15:00N 34°37' E 135°16'0 0.0
2017-Oct-10 13:57N 34°37' E 135°16'0 0.0
2017-Oct-10 13:30N 34°37' E 135°16'0 0.0
2017-Oct-10 13:00N 34°37' E 135°16'0 0.0
2017-Oct-10 12:30N 34°37' E 135°16'0 0.0
2017-Oct-10 12:00N 34°37' E 135°16'0 0.0
2017-Oct-10 11:30N 34°37' E 135°16'0 0.0
2017-Oct-10 11:00N 34°37' E 135°16'0 0.1
2017-Oct-10 10:30N 34°37' E 135°16'0 0.0
2017-Oct-10 10:00N 34°37' E 135°16'0 0.0
2017-Oct-10 09:30N 34°37' E 135°16'0 0.1
2017-Oct-10 09:00N 34°37' E 135°16'0 0.0
2017-Oct-10 08:30N 34°37' E 135°16'0 0.0
2017-Oct-10 08:00N 34°37' E 135°16'0 0.1
2017-Oct-10 07:30N 34°37' E 135°16'4 7.9
2017-Oct-10 07:00N 34°35' E 135°12'713.2
2017-Oct-10 06:30N 34°35' E 135°04'712.9
2017-Oct-10 05:57N 34°35' E 134°55'  

Dump ship's entire track history